Buffalo Ridge, South Dakota
Current Conditions -  °F | °C
As of 1:56 PM on Friday 19 Dec 2014 (Local Time) from KFSD Reporting Station
Overcast Overcast  
Wind Chill: 19°   Ceiling: 700
Heat Index: 30°   Visibility: 7mi
Dew Point: 27°   Wind: 16mph
Humidity: 88%   Direction: 180°S
Pressure: 30.09"   Gusts: NA
Location:  43.66°N, 96.82°W
Report Text: KFSD 191956Z 18014KT 7SM OVC007 M01/M03 A3009 RMK AO2 SLP207 T10111028
Loading
Personal Weather Stations






























Interactive Weather Map New forecast layout! Learn more

10-Day Weather Forecast

Advertisements
Track Severe Weather on mobile